Flight Track Log - Related Links

Times and Time Zones

All times are in EDT time to prevent confusion due to time zone crossing. See the JBU1329 flight status page for this flight to view local times or setup timezone preferences in your user account.

Time Position Orientation Groundspeed Altitude Reporting Facility
EDT Latitude Longitude Course Direction KTS km/h feet Rate Location/Type
Sun 09:16:01 42.3500 -71.0167 262° West 146 270 1.200  Level KA90
Sun 09:18:00 42.3499 -70.7266 172° South  Level FlightAware Approximate
Sun 09:18:12 42.2658 -71.1525 230° Southwest 232 430 5.300  Level Boston Center
Sun 09:19:00 42.2612 -70.7749 228° Southwest  Level FlightAware Approximate
Sun 09:19:12 42.2378 -71.2400 247° West 263 488 7.900  Level Boston Center
Sun 09:20:00 42.1999 -70.8948 240° Southwest  Level FlightAware Approximate
Sun 09:20:12 42.2158 -71.3497 255° West 276 512 10.900  Level Boston Center
Sun 09:21:00 42.1766 -71.0345 262° West  Level FlightAware Approximate
Sun 09:21:12 42.1939 -71.4564 255° West 308 570 12.800  Level Boston Center
Sun 09:22:12 42.1700 -71.5914 257° West 338 626 16.100 3.050 Climbing Boston Center
Sun 09:23:12 42.1397 -71.7178 252° West 349 647 18.900 2.400 Climbing Boston Center
Sun 09:24:12 42.0861 -71.8442 240° Southwest 370 686 20.900 2.050 Climbing Boston Center
Sun 09:25:12 42.0283 -71.9678 238° Southwest 387 716 23.000 2.000 Climbing Boston Center
Sun 09:26:12 41.9725 -72.0939 239° Southwest 392 726 24.900 1.800 Climbing Boston Center
Sun 09:27:12 41.9125 -72.2281 239° Southwest 408 756 26.600 1.750 Climbing Boston Center
Sun 09:28:12 41.8522 -72.3592 238° Southwest 416 771 28.400 1.750 Climbing Boston Center
Sun 09:29:12 41.7919 -72.4903 238° Southwest 416 771 30.100 1.600 Climbing Boston Center
Sun 09:30:12 41.7314 -72.6236 239° Southwest 416 771 31.600 950 Climbing Boston Center
Sun 09:31:12 41.6664 -72.7569 237° Southwest 421 779 32.000 200 Climbing Boston Center
Sun 09:32:12 41.6033 -72.8953 239° Southwest 428 793 32.000  Level Boston Center
Sun 09:33:12 41.5403 -73.0336 239° Southwest 433 801 32.000  Level Boston Center
Sun 09:34:12 41.4789 -73.1689 239° Southwest 433 801 32.000  Level Boston Center
Sun 09:35:12 41.4133 -73.3036 237° Southwest 433 801 32.000  Level Boston Center
Sun 09:36:53 41.3150 -73.5169 239° Southwest 426 789 32.000  Level New York Center
Sun 09:37:53 41.2453 -73.6464 234° Southwest 426 789 32.000  Level New York Center
Sun 09:38:53 41.1692 -73.7756 232° Southwest 439 813 32.000  Level New York Center
Sun 09:39:53 41.0931 -73.9014 231° Southwest 445 824 32.000  Level New York Center
Sun 09:40:53 41.0189 -74.0272 232° Southwest 451 835 32.000  Level New York Center
Sun 09:41:53 40.9425 -74.1528 231° Southwest 451 835 32.000  Level New York Center
Sun 09:42:53 40.8572 -74.2883 230° Southwest 451 835 32.000  Level New York Center
Sun 09:43:53 40.7825 -74.4106 231° Southwest 451 835 32.000 -850 Level New York Center
Sun 09:44:53 40.7100 -74.5381 233° Southwest 446 826 30.300 -1.800 Descending New York Center
Sun 09:45:53 40.6353 -74.6542 230° Southwest 438 811 28.400 -1.800 Descending New York Center
Sun 09:46:53 40.5625 -74.7731 231° Southwest 433 801 26.700 -1.650 Descending New York Center
Sun 09:47:53 40.4858 -74.8806 227° Southwest 422 782 25.100 -1.600 Descending New York Center
Sun 09:48:53 40.4114 -74.9850 227° Southwest 405 750 23.500 -1.600 Descending New York Center
Sun 09:49:53 40.3367 -75.0894 227° Southwest 400 740 21.900 -1.600 Descending New York Center
Sun 09:50:53 40.2642 -75.1936 228° Southwest 400 740 20.300 -1.550 Descending New York Center
Sun 09:51:53 40.1917 -75.2922 226° Southwest 395 732 18.800 -1.150 Descending New York Center
Sun 09:52:53 40.1297 -75.3806 227° Southwest 381 705 18.000 -400 Descending New York Center
Sun 09:53:53 40.0525 -75.4867 226° Southwest 371 687 18.000  Level New York Center
Sun 09:54:53 39.9886 -75.5719 226° Southwest 371 687 18.000  Level New York Center
Sun 09:55:53 39.9133 -75.6775 227° Southwest 371 687 18.000  Level New York Center
Sun 09:56:53 39.8633 -75.7769 237° Southwest 371 687 18.000 -1.081 Level New York Center
Sun 09:58:45 39.7500 -75.9833 235° Southwest 344 637 14.900 -1.919 Descending Potomac TRACON
Sun 09:59:45 39.7000 -76.0833 237° Southwest 339 628 12.500 -2.048 Descending Potomac TRACON
Sun 10:00:51 39.6333 -76.1833 229° Southwest 327 605 10.600 -1.381 Descending Potomac TRACON
Sun 10:01:51 39.5667 -76.2500 218° Southwest 290 538 9.600 -1.350 Descending Potomac TRACON
Sun 10:02:51 39.5167 -76.3167 226° Southwest 281 520 7.900 -1.789 Descending Potomac TRACON
Sun 10:03:45 39.4500 -76.3667 210° Southwest 281 520 6.200 -1.684 Descending Potomac TRACON
Sun 10:04:45 39.3833 -76.4000 201° Southwest 293 542 4.700 -939 Descending Potomac TRACON
Sun 10:05:40 39.3333 -76.4333 207° Southwest 237 439 4.400 -574 Descending Potomac TRACON
Sun 10:06:40 39.2667 -76.4667 201° Southwest 227 420 3.600 -800 Descending Potomac TRACON
Sun 10:07:40 39.2167 -76.5167 218° Southwest 223 414 2.800 -835 Descending Potomac TRACON
Sun 10:08:35 39.1667 -76.5500 207° Southwest 214 396 2.000 -873 Descending Potomac TRACON

Login

Don't have an account? Register now (free) for customized features, flight alerts, and more!